Hlavní strana
METAR-TAF:

METAR-TAF

Letiště :

Fort Chipewyan, Alberta, Kanada

zeměpisná šířka: 58-46N, zeměpisná délka: 111-07W, výška: 232 m

Aktuální stav počasí

Zpráva byla vytvořena před 33 minutami, v 02:00 UTC
Východní vítr 9 kt
Teplota -5°C
Vlhkost vzduchu 79%
Tlak 1009 hPa
Viditelnost: 14.5 km
Zataženo ve výšce 2000 ft

METAR: CYPY 140200Z AUTO 10009KT 9SM OVC020 M05/M08 A2979 RMK SLP107

Čas: 19:33 (02:33 UTC)

Předpověď počasí

Zpráva byla vytvořena před 2 hodinami a 54 minutami, v 23:39 UTC
Předpověď platná od 14 v 00 UTC do 14 v 07 UTC
Východní vítr 10 kt s nárazy do 20 kt
Viditelnost: 10 km
Polojasno ve výšce 2000 ft
Zataženo ve výšce 13000 ft
Dočasný
od 14 v 00 UTC do 14 v 07 UTC
Viditelnost: 8.0 km
Zataženo ve výšce 2000 ft
slabé sněžení

TAF: CYPY 132339Z 1400/1407 10010G20KT P6SM SCT020 OVC130 TEMPO 1400/1407 5SM -SN OVC020 RMK FCST BASED ON AUTO OBS. NXT FCST WILL BE ISSUED AT 141245Z

Stav a předpovědi počasí z více než 4 000 letišť (zprávy METAR a TAF).

Červené a žluté tečky na mapě představují dostupné meteorologické stanice.

Když kurzor umístíte na tečku, zobrazí se název stanice.

Pak kliknutím zobrazíte stav a předpověď počasí.

Chcete-li změnit mapu, kliknutím na zelené tlačítko se znaménkem +mapu přiblížíte, kliknutím na zelené tlačítko se znaménkem – mapu oddálíte a kliknutím na zelené šipky přejdete na sousední mapy.


METAR-TAF: